sensor_id;sensor_type;location;lat;lon;timestamp;pressure;altitude;pressure_sealevel;temperature;humidity
13058;BME280;6595;49.578;11.012;2022-10-19T00:00:24;994.464;;;19.88;88.6
13058;BME280;6595;49.578;11.012;2022-10-19T00:02:24;994.508;;;19.90;88.6
13058;BME280;6595;49.578;11.012;2022-10-19T00:04:23;994.485;;;19.68;88.5
13058;BME280;6595;49.578;11.012;2022-10-19T00:06:25;994.480;;;19.93;88.6
13058;BME280;6595;49.578;11.012;2022-10-19T00:08:24;994.492;;;19.97;88.6
13058;BME280;6595;49.578;11.012;2022-10-19T00:10:23;994.485;;;19.96;88.6
13058;BME280;6595;49.578;11.012;2022-10-19T00:12:23;994.450;;;20.01;88.6
13058;BME280;6595;49.578;11.012;2022-10-19T00:14:24;994.408;;;19.83;88.5
13058;BME280;6595;49.578;11.012;2022-10-19T00:16:25;994.451;;;19.95;88.6
13058;BME280;6595;49.578;11.012;2022-10-19T00:18:24;994.409;;;19.89;88.6
13058;BME280;6595;49.578;11.012;2022-10-19T00:20:24;994.415;;;19.96;88.6
13058;BME280;6595;49.578;11.012;2022-10-19T00:22:24;994.402;;;19.80;88.5
13058;BME280;6595;49.578;11.012;2022-10-19T00:24:24;994.359;;;19.62;88.5
13058;BME280;6595;49.578;11.012;2022-10-19T00:26:23;994.368;;;19.66;88.5
13058;BME280;6595;49.578;11.012;2022-10-19T00:28:23;994.415;;;19.86;88.5
13058;BME280;6595;49.578;11.012;2022-10-19T00:30:24;994.436;;;19.76;88.5
13058;BME280;6595;49.578;11.012;2022-10-19T00:32:24;994.425;;;19.70;88.5
13058;BME280;6595;49.578;11.012;2022-10-19T00:34:23;994.459;;;19.59;88.5
13058;BME280;6595;49.578;11.012;2022-10-19T00:36:25;994.453;;;19.71;88.5
13058;BME280;6595;49.578;11.012;2022-10-19T00:38:24;994.477;;;19.40;88.5
13058;BME280;6595;49.578;11.012;2022-10-19T00:40:24;994.517;;;19.14;88.5
13058;BME280;6595;49.578;11.012;2022-10-19T00:42:24;994.590;;;19.49;88.5
13058;BME280;6595;49.578;11.012;2022-10-19T00:46:25;994.577;;;19.55;88.5
13058;BME280;6595;49.578;11.012;2022-10-19T00:48:26;994.604;;;19.82;88.5
13058;BME280;6595;49.578;11.012;2022-10-19T00:50:23;994.609;;;19.61;88.5
13058;BME280;6595;49.578;11.012;2022-10-19T00:52:24;994.633;;;19.26;88.5
13058;BME280;6595;49.578;11.012;2022-10-19T00:54:24;994.582;;;19.23;88.5
13058;BME280;6595;49.578;11.012;2022-10-19T00:56:24;994.603;;;19.21;88.5
13058;BME280;6595;49.578;11.012;2022-10-19T00:58:24;994.588;;;19.27;88.5
13058;BME280;6595;49.578;11.012;2022-10-19T01:00:24;994.642;;;19.21;88.5
13058;BME280;6595;49.578;11.012;2022-10-19T01:02:23;994.598;;;19.52;88.5
13058;BME280;6595;49.578;11.012;2022-10-19T01:04:25;994.584;;;19.63;88.5
13058;BME280;6595;49.578;11.012;2022-10-19T01:06:23;994.579;;;19.66;88.5
13058;BME280;6595;49.578;11.012;2022-10-19T01:08:24;994.567;;;19.62;88.5
13058;BME280;6595;49.578;11.012;2022-10-19T01:10:32;994.502;;;19.38;88.5
13058;BME280;6595;49.578;11.012;2022-10-19T01:12:38;994.521;;;19.72;88.5
13058;BME280;6595;49.578;11.012;2022-10-19T01:14:30;994.512;;;19.48;88.5
13058;BME280;6595;49.578;11.012;2022-10-19T01:16:31;994.539;;;19.01;88.5
13058;BME280;6595;49.578;11.012;2022-10-19T01:18:29;994.552;;;19.23;88.5
13058;BME280;6595;49.578;11.012;2022-10-19T01:20:42;994.544;;;19.37;88.5
13058;BME280;6595;49.578;11.012;2022-10-19T01:22:32;994.580;;;18.72;88.4
13058;BME280;6595;49.578;11.012;2022-10-19T01:24:34;994.507;;;19.26;88.5
13058;BME280;6595;49.578;11.012;2022-10-19T01:26:39;994.550;;;19.27;88.5
13058;BME280;6595;49.578;11.012;2022-10-19T01:28:35;994.632;;;18.54;88.4
13058;BME280;6595;49.578;11.012;2022-10-19T01:30:34;994.576;;;19.03;88.5
13058;BME280;6595;49.578;11.012;2022-10-19T01:32:29;994.565;;;19.15;88.5
13058;BME280;6595;49.578;11.012;2022-10-19T01:34:28;994.550;;;18.91;88.4
13058;BME280;6595;49.578;11.012;2022-10-19T01:36:29;994.555;;;18.55;88.4
13058;BME280;6595;49.578;11.012;2022-10-19T01:38:30;994.552;;;18.77;88.4
13058;BME280;6595;49.578;11.012;2022-10-19T01:40:27;994.523;;;19.07;88.5
13058;BME280;6595;49.578;11.012;2022-10-19T01:42:28;994.503;;;18.95;88.5
13058;BME280;6595;49.578;11.012;2022-10-19T01:44:27;994.435;;;19.12;88.5
13058;BME280;6595;49.578;11.012;2022-10-19T01:46:28;994.412;;;18.81;88.4
13058;BME280;6595;49.578;11.012;2022-10-19T01:48:27;994.398;;;18.92;88.4
13058;BME280;6595;49.578;11.012;2022-10-19T01:50:28;994.343;;;19.17;88.5
13058;BME280;6595;49.578;11.012;2022-10-19T01:52:25;994.366;;;18.96;88.5
13058;BME280;6595;49.578;11.012;2022-10-19T01:54:24;994.299;;;19.07;88.5
13058;BME280;6595;49.578;11.012;2022-10-19T01:56:26;994.301;;;18.84;88.4
13058;BME280;6595;49.578;11.012;2022-10-19T01:58:26;994.302;;;18.98;88.5
13058;BME280;6595;49.578;11.012;2022-10-19T02:00:25;994.271;;;19.15;88.5
13058;BME280;6595;49.578;11.012;2022-10-19T02:02:24;994.355;;;18.61;88.4
13058;BME280;6595;49.578;11.012;2022-10-19T02:04:24;994.238;;;18.97;88.5
13058;BME280;6595;49.578;11.012;2022-10-19T02:06:24;994.233;;;19.00;88.5
13058;BME280;6595;49.578;11.012;2022-10-19T02:08:26;994.246;;;18.74;88.4
13058;BME280;6595;49.578;11.012;2022-10-19T02:10:24;994.197;;;18.95;88.5
13058;BME280;6595;49.578;11.012;2022-10-19T02:12:25;994.131;;;19.00;88.5
13058;BME280;6595;49.578;11.012;2022-10-19T02:14:28;994.163;;;18.64;88.4
13058;BME280;6595;49.578;11.012;2022-10-19T02:16:26;994.099;;;19.00;88.5
13058;BME280;6595;49.578;11.012;2022-10-19T02:18:27;994.082;;;18.92;88.4
13058;BME280;6595;49.578;11.012;2022-10-19T02:20:25;994.077;;;19.00;88.5
13058;BME280;6595;49.578;11.012;2022-10-19T02:22:24;994.063;;;18.97;88.5
13058;BME280;6595;49.578;11.012;2022-10-19T02:24:24;994.019;;;18.75;88.4
13058;BME280;6595;49.578;11.012;2022-10-19T02:26:24;994.000;;;18.61;88.4
13058;BME280;6595;49.578;11.012;2022-10-19T02:28:24;994.000;;;18.65;88.4
13058;BME280;6595;49.578;11.012;2022-10-19T02:30:24;994.019;;;18.67;88.4
13058;BME280;6595;49.578;11.012;2022-10-19T02:32:24;994.022;;;18.66;88.4
13058;BME280;6595;49.578;11.012;2022-10-19T02:34:23;993.992;;;18.89;88.4
13058;BME280;6595;49.578;11.012;2022-10-19T02:36:24;993.971;;;19.02;88.5
13058;BME280;6595;49.578;11.012;2022-10-19T02:38:24;993.944;;;18.89;88.4
13058;BME280;6595;49.578;11.012;2022-10-19T02:40:25;993.941;;;18.91;88.4
13058;BME280;6595;49.578;11.012;2022-10-19T02:42:27;993.913;;;18.99;88.5
13058;BME280;6595;49.578;11.012;2022-10-19T02:44:26;993.954;;;18.93;88.4
13058;BME280;6595;49.578;11.012;2022-10-19T02:46:27;993.926;;;18.98;88.5
13058;BME280;6595;49.578;11.012;2022-10-19T02:48:25;993.914;;;18.99;88.5
13058;BME280;6595;49.578;11.012;2022-10-19T02:50:23;993.942;;;19.01;88.5
13058;BME280;6595;49.578;11.012;2022-10-19T02:52:24;993.922;;;18.95;88.5
13058;BME280;6595;49.578;11.012;2022-10-19T02:54:23;993.892;;;18.99;88.5
13058;BME280;6595;49.578;11.012;2022-10-19T02:56:24;993.932;;;19.08;88.5
13058;BME280;6595;49.578;11.012;2022-10-19T02:58:23;993.919;;;19.19;88.5
13058;BME280;6595;49.578;11.012;2022-10-19T03:00:24;993.951;;;19.13;88.5
13058;BME280;6595;49.578;11.012;2022-10-19T03:02:24;993.909;;;19.02;88.5
13058;BME280;6595;49.578;11.012;2022-10-19T03:04:23;993.910;;;18.89;88.4
13058;BME280;6595;49.578;11.012;2022-10-19T03:06:23;993.884;;;19.13;88.5
13058;BME280;6595;49.578;11.012;2022-10-19T03:08:24;993.866;;;18.96;88.5
13058;BME280;6595;49.578;11.012;2022-10-19T03:10:24;993.850;;;18.79;88.4
13058;BME280;6595;49.578;11.012;2022-10-19T03:12:23;993.880;;;18.70;88.4
13058;BME280;6595;49.578;11.012;2022-10-19T03:14:24;993.877;;;18.82;88.4
13058;BME280;6595;49.578;11.012;2022-10-19T03:16:24;993.866;;;18.87;88.4
13058;BME280;6595;49.578;11.012;2022-10-19T03:18:23;993.822;;;19.02;88.5
13058;BME280;6595;49.578;11.012;2022-10-19T03:20:23;993.789;;;18.89;88.4
13058;BME280;6595;49.578;11.012;2022-10-19T03:22:24;993.837;;;18.59;88.4
13058;BME280;6595;49.578;11.012;2022-10-19T03:24:24;993.864;;;18.70;88.4
13058;BME280;6595;49.578;11.012;2022-10-19T03:26:23;993.876;;;18.83;88.4
13058;BME280;6595;49.578;11.012;2022-10-19T03:28:24;993.882;;;18.84;88.4
13058;BME280;6595;49.578;11.012;2022-10-19T03:30:24;993.895;;;18.92;88.4
13058;BME280;6595;49.578;11.012;2022-10-19T03:32:24;993.902;;;18.85;88.4
13058;BME280;6595;49.578;11.012;2022-10-19T03:34:24;993.872;;;19.09;88.5
13058;BME280;6595;49.578;11.012;2022-10-19T03:36:26;993.845;;;18.88;88.4
13058;BME280;6595;49.578;11.012;2022-10-19T03:38:40;993.809;;;18.90;88.5
13058;BME280;6595;49.578;11.012;2022-10-19T03:40:24;993.881;;;18.87;88.4
13058;BME280;6595;49.578;11.012;2022-10-19T03:42:23;993.863;;;18.88;88.4
13058;BME280;6595;49.578;11.012;2022-10-19T03:44:24;993.845;;;18.82;88.4
13058;BME280;6595;49.578;11.012;2022-10-19T03:46:23;993.860;;;19.06;88.5
13058;BME280;6595;49.578;11.012;2022-10-19T03:48:24;993.872;;;18.94;88.4
13058;BME280;6595;49.578;11.012;2022-10-19T03:50:23;993.846;;;19.11;88.5
13058;BME280;6595;49.578;11.012;2022-10-19T03:52:24;993.846;;;19.11;88.5
13058;BME280;6595;49.578;11.012;2022-10-19T03:54:23;993.869;;;19.09;88.5
13058;BME280;6595;49.578;11.012;2022-10-19T03:56:25;993.888;;;19.05;88.5
13058;BME280;6595;49.578;11.012;2022-10-19T03:58:23;993.868;;;18.96;88.5
13058;BME280;6595;49.578;11.012;2022-10-19T04:00:24;993.908;;;18.83;88.4
13058;BME280;6595;49.578;11.012;2022-10-19T04:02:24;993.908;;;18.46;88.4
13058;BME280;6595;49.578;11.012;2022-10-19T04:04:24;993.907;;;18.50;88.4
13058;BME280;6595;49.578;11.012;2022-10-19T04:06:25;993.914;;;18.73;88.4
13058;BME280;6595;49.578;11.012;2022-10-19T04:08:24;993.944;;;18.88;88.4
13058;BME280;6595;49.578;11.012;2022-10-19T04:10:23;993.993;;;18.66;88.4
13058;BME280;6595;49.578;11.012;2022-10-19T04:12:24;993.996;;;18.83;88.4
13058;BME280;6595;49.578;11.012;2022-10-19T04:14:24;993.897;;;19.00;88.5
13058;BME280;6595;49.578;11.012;2022-10-19T04:16:24;993.890;;;19.01;88.5
13058;BME280;6595;49.578;11.012;2022-10-19T04:18:24;993.864;;;18.80;88.4
13058;BME280;6595;49.578;11.012;2022-10-19T04:20:23;993.855;;;18.88;88.4
13058;BME280;6595;49.578;11.012;2022-10-19T04:22:24;993.818;;;18.97;88.5
13058;BME280;6595;49.578;11.012;2022-10-19T04:24:23;993.813;;;18.93;88.4
13058;BME280;6595;49.578;11.012;2022-10-19T04:26:24;993.810;;;18.79;88.4
13058;BME280;6595;49.578;11.012;2022-10-19T04:28:23;993.822;;;18.82;88.4
13058;BME280;6595;49.578;11.012;2022-10-19T04:30:23;993.811;;;18.54;88.4
13058;BME280;6595;49.578;11.012;2022-10-19T04:32:24;993.811;;;18.53;88.4
13058;BME280;6595;49.578;11.012;2022-10-19T04:34:24;993.806;;;18.58;88.4
13058;BME280;6595;49.578;11.012;2022-10-19T04:36:24;993.801;;;18.77;88.4
13058;BME280;6595;49.578;11.012;2022-10-19T04:38:23;993.833;;;18.43;88.4
13058;BME280;6595;49.578;11.012;2022-10-19T04:40:24;993.842;;;18.58;88.4
13058;BME280;6595;49.578;11.012;2022-10-19T04:42:24;993.832;;;18.64;88.4
13058;BME280;6595;49.578;11.012;2022-10-19T04:44:23;993.873;;;18.24;88.4
13058;BME280;6595;49.578;11.012;2022-10-19T04:46:25;993.865;;;17.91;88.3
13058;BME280;6595;49.578;11.012;2022-10-19T04:48:24;993.857;;;17.99;88.4
13058;BME280;6595;49.578;11.012;2022-10-19T04:50:24;993.833;;;17.67;88.3
13058;BME280;6595;49.578;11.012;2022-10-19T04:52:24;993.827;;;17.57;88.3
13058;BME280;6595;49.578;11.012;2022-10-19T04:54:23;993.843;;;17.74;88.3
13058;BME280;6595;49.578;11.012;2022-10-19T04:56:25;993.898;;;17.63;88.3
13058;BME280;6595;49.578;11.012;2022-10-19T04:58:23;993.902;;;18.01;88.4
13058;BME280;6595;49.578;11.012;2022-10-19T05:00:24;993.880;;;18.08;88.4
13058;BME280;6595;49.578;11.012;2022-10-19T05:02:23;993.834;;;18.10;88.4
13058;BME280;6595;49.578;11.012;2022-10-19T05:04:23;993.795;;;18.16;88.4
13058;BME280;6595;49.578;11.012;2022-10-19T05:06:24;993.794;;;18.14;88.4
13058;BME280;6595;49.578;11.012;2022-10-19T05:08:24;993.824;;;18.01;88.3
13058;BME280;6595;49.578;11.012;2022-10-19T05:10:23;993.816;;;17.91;88.3
13058;BME280;6595;49.578;11.012;2022-10-19T05:12:23;993.831;;;18.01;88.3
13058;BME280;6595;49.578;11.012;2022-10-19T05:14:24;993.810;;;18.08;88.4
13058;BME280;6595;49.578;11.012;2022-10-19T05:16:24;993.788;;;18.06;88.4
13058;BME280;6595;49.578;11.012;2022-10-19T05:18:23;993.782;;;18.07;88.4
13058;BME280;6595;49.578;11.012;2022-10-19T05:20:23;993.803;;;17.69;88.3
13058;BME280;6595;49.578;11.012;2022-10-19T05:22:24;993.746;;;18.05;88.4
13058;BME280;6595;49.578;11.012;2022-10-19T05:24:24;993.748;;;18.12;88.4
13058;BME280;6595;49.578;11.012;2022-10-19T05:26:25;993.757;;;18.00;88.4
13058;BME280;6595;49.578;11.012;2022-10-19T05:28:24;993.738;;;18.11;88.4
13058;BME280;6595;49.578;11.012;2022-10-19T05:30:24;993.763;;;18.16;88.4
13058;BME280;6595;49.578;11.012;2022-10-19T05:32:23;993.782;;;18.18;88.4
13058;BME280;6595;49.578;11.012;2022-10-19T05:34:23;993.849;;;18.14;88.4
13058;BME280;6595;49.578;11.012;2022-10-19T05:36:26;993.818;;;18.01;88.3
13058;BME280;6595;49.578;11.012;2022-10-19T05:38:24;993.831;;;18.01;88.3
13058;BME280;6595;49.578;11.012;2022-10-19T05:40:24;993.826;;;17.90;88.3
13058;BME280;6595;49.578;11.012;2022-10-19T05:42:24;993.859;;;18.03;88.3
13058;BME280;6595;49.578;11.012;2022-10-19T05:44:23;993.820;;;18.15;88.4
13058;BME280;6595;49.578;11.012;2022-10-19T05:46:25;993.806;;;18.23;88.4
13058;BME280;6595;49.578;11.012;2022-10-19T05:48:23;993.802;;;18.22;88.4
13058;BME280;6595;49.578;11.012;2022-10-19T05:50:24;993.833;;;18.13;88.4
13058;BME280;6595;49.578;11.012;2022-10-19T05:52:24;993.813;;;18.14;88.4
13058;BME280;6595;49.578;11.012;2022-10-19T05:54:24;993.842;;;18.19;88.4
13058;BME280;6595;49.578;11.012;2022-10-19T05:56:25;993.845;;;18.22;88.4
13058;BME280;6595;49.578;11.012;2022-10-19T05:58:24;993.860;;;18.36;88.4
13058;BME280;6595;49.578;11.012;2022-10-19T06:00:23;993.825;;;18.44;88.4
13058;BME280;6595;49.578;11.012;2022-10-19T06:02:24;993.853;;;18.14;88.4
13058;BME280;6595;49.578;11.012;2022-10-19T06:04:24;993.887;;;18.11;88.4
13058;BME280;6595;49.578;11.012;2022-10-19T06:06:25;993.845;;;18.21;88.4
13058;BME280;6595;49.578;11.012;2022-10-19T06:08:24;993.845;;;18.25;88.4
13058;BME280;6595;49.578;11.012;2022-10-19T06:10:23;993.891;;;18.12;88.4
13058;BME280;6595;49.578;11.012;2022-10-19T06:12:24;993.924;;;17.91;88.3
13058;BME280;6595;49.578;11.012;2022-10-19T06:14:23;993.915;;;17.76;88.3
13058;BME280;6595;49.578;11.012;2022-10-19T06:16:26;993.929;;;18.02;88.3
13058;BME280;6595;49.578;11.012;2022-10-19T06:18:24;993.893;;;18.19;88.4
13058;BME280;6595;49.578;11.012;2022-10-19T06:20:24;994.030;;;18.18;88.4
13058;BME280;6595;49.578;11.012;2022-10-19T06:22:23;994.053;;;18.10;88.4
13058;BME280;6595;49.578;11.012;2022-10-19T06:24:24;994.043;;;18.07;88.4
13058;BME280;6595;49.578;11.012;2022-10-19T06:26:25;994.091;;;18.21;88.4
13058;BME280;6595;49.578;11.012;2022-10-19T06:28:23;994.072;;;17.62;88.3
13058;BME280;6595;49.578;11.012;2022-10-19T06:30:24;994.100;;;18.01;88.3
13058;BME280;6595;49.578;11.012;2022-10-19T06:32:24;994.149;;;18.21;88.4
13058;BME280;6595;49.578;11.012;2022-10-19T06:34:24;994.173;;;18.26;88.4
13058;BME280;6595;49.578;11.012;2022-10-19T06:36:28;994.181;;;18.22;88.4
13058;BME280;6595;49.578;11.012;2022-10-19T06:38:24;994.181;;;18.22;88.4
13058;BME280;6595;49.578;11.012;2022-10-19T06:40:24;994.145;;;17.89;88.3
13058;BME280;6595;49.578;11.012;2022-10-19T06:42:24;994.148;;;18.22;88.4
13058;BME280;6595;49.578;11.012;2022-10-19T06:44:23;994.132;;;18.26;88.4
13058;BME280;6595;49.578;11.012;2022-10-19T06:46:24;994.144;;;17.84;88.3
13058;BME280;6595;49.578;11.012;2022-10-19T06:48:24;994.128;;;18.28;88.4
13058;BME280;6595;49.578;11.012;2022-10-19T06:50:23;994.090;;;18.61;88.4
13058;BME280;6595;49.578;11.012;2022-10-19T06:52:23;994.101;;;18.73;88.4
13058;BME280;6595;49.578;11.012;2022-10-19T06:54:24;994.060;;;18.81;88.4
13058;BME280;6595;49.578;11.012;2022-10-19T06:56:23;994.089;;;18.64;88.4
13058;BME280;6595;49.578;11.012;2022-10-19T06:58:24;994.167;;;17.57;88.3
13058;BME280;6595;49.578;11.012;2022-10-19T07:00:23;994.084;;;17.07;88.2
13058;BME280;6595;49.578;11.012;2022-10-19T07:02:24;994.081;;;17.11;88.2
13058;BME280;6595;49.578;11.012;2022-10-19T07:04:24;994.090;;;17.18;88.3
13058;BME280;6595;49.578;11.012;2022-10-19T07:06:25;994.140;;;16.39;88.2
13058;BME280;6595;49.578;11.012;2022-10-19T07:08:24;994.192;;;15.92;88.1
13058;BME280;6595;49.578;11.012;2022-10-19T07:10:24;994.128;;;16.95;88.2
13058;BME280;6595;49.578;11.012;2022-10-19T07:12:23;994.128;;;16.95;88.2
13058;BME280;6595;49.578;11.012;2022-10-19T07:14:24;994.220;;;17.13;88.2
13058;BME280;6595;49.578;11.012;2022-10-19T07:16:24;994.287;;;17.75;88.3
13058;BME280;6595;49.578;11.012;2022-10-19T07:18:24;994.313;;;17.67;88.3
13058;BME280;6595;49.578;11.012;2022-10-19T07:20:24;994.358;;;17.88;88.3
13058;BME280;6595;49.578;11.012;2022-10-19T07:22:23;994.395;;;18.16;88.4
13058;BME280;6595;49.578;11.012;2022-10-19T07:24:24;994.457;;;18.17;88.4
13058;BME280;6595;49.578;11.012;2022-10-19T07:26:25;994.480;;;18.23;88.4
13058;BME280;6595;49.578;11.012;2022-10-19T07:28:24;994.458;;;18.26;88.4
13058;BME280;6595;49.578;11.012;2022-10-19T07:30:24;994.446;;;18.13;88.4
13058;BME280;6595;49.578;11.012;2022-10-19T07:32:24;994.411;;;18.19;88.4
13058;BME280;6595;49.578;11.012;2022-10-19T07:34:23;994.438;;;17.49;88.3
13058;BME280;6595;49.578;11.012;2022-10-19T07:36:24;994.425;;;17.30;88.3
13058;BME280;6595;49.578;11.012;2022-10-19T07:38:24;994.419;;;17.29;88.3
13058;BME280;6595;49.578;11.012;2022-10-19T07:40:23;994.422;;;17.09;88.3
13058;BME280;6595;49.578;11.012;2022-10-19T07:42:23;994.446;;;17.65;88.3
13058;BME280;6595;49.578;11.012;2022-10-19T07:44:24;994.453;;;17.95;88.3
13058;BME280;6595;49.578;11.012;2022-10-19T07:46:25;994.445;;;18.04;88.3
13058;BME280;6595;49.578;11.012;2022-10-19T07:48:24;994.484;;;17.76;88.3
13058;BME280;6595;49.578;11.012;2022-10-19T07:50:24;994.466;;;17.48;88.3
13058;BME280;6595;49.578;11.012;2022-10-19T07:52:24;994.458;;;17.91;88.3
13058;BME280;6595;49.578;11.012;2022-10-19T07:54:23;994.426;;;17.40;88.3
13058;BME280;6595;49.578;11.012;2022-10-19T07:56:26;994.516;;;17.62;88.3
13058;BME280;6595;49.578;11.012;2022-10-19T07:58:23;994.513;;;17.73;88.3
13058;BME280;6595;49.578;11.012;2022-10-19T08:00:23;994.472;;;16.78;88.2
13058;BME280;6595;49.578;11.012;2022-10-19T08:02:24;994.493;;;17.77;88.3
13058;BME280;6595;49.578;11.012;2022-10-19T08:04:24;994.527;;;18.26;88.4
13058;BME280;6595;49.578;11.012;2022-10-19T08:06:25;994.589;;;17.89;88.3
13058;BME280;6595;49.578;11.012;2022-10-19T08:08:23;994.597;;;17.74;88.3
13058;BME280;6595;49.578;11.012;2022-10-19T08:10:23;994.603;;;18.14;88.4
13058;BME280;6595;49.578;11.012;2022-10-19T08:12:24;994.549;;;16.72;88.2
13058;BME280;6595;49.578;11.012;2022-10-19T08:14:23;994.593;;;17.71;88.3
13058;BME280;6595;49.578;11.012;2022-10-19T08:16:26;994.621;;;17.84;88.3
13058;BME280;6595;49.578;11.012;2022-10-19T08:18:23;994.616;;;18.06;88.4
13058;BME280;6595;49.578;11.012;2022-10-19T08:20:24;994.669;;;18.00;88.4
13058;BME280;6595;49.578;11.012;2022-10-19T08:22:23;994.696;;;17.68;88.3
13058;BME280;6595;49.578;11.012;2022-10-19T08:24:24;994.683;;;17.89;88.3
13058;BME280;6595;49.578;11.012;2022-10-19T08:26:24;994.669;;;17.79;88.3
13058;BME280;6595;49.578;11.012;2022-10-19T08:28:23;994.632;;;17.59;88.3
13058;BME280;6595;49.578;11.012;2022-10-19T08:30:24;994.638;;;17.72;88.3
13058;BME280;6595;49.578;11.012;2022-10-19T08:32:24;994.605;;;17.43;88.3
13058;BME280;6595;49.578;11.012;2022-10-19T08:34:23;994.595;;;17.92;88.3
13058;BME280;6595;49.578;11.012;2022-10-19T08:36:24;994.616;;;18.09;88.4
13058;BME280;6595;49.578;11.012;2022-10-19T08:38:24;994.609;;;17.83;88.3
13058;BME280;6595;49.578;11.012;2022-10-19T08:40:25;994.590;;;18.06;88.4
13058;BME280;6595;49.578;11.012;2022-10-19T08:42:30;994.576;;;18.01;88.3
13058;BME280;6595;49.578;11.012;2022-10-19T08:44:40;994.548;;;18.62;88.4
13058;BME280;6595;49.578;11.012;2022-10-19T08:46:28;994.480;;;18.73;88.4
13058;BME280;6595;49.578;11.012;2022-10-19T08:48:26;994.383;;;19.11;88.5
13058;BME280;6595;49.578;11.012;2022-10-19T08:50:26;994.435;;;18.97;88.5
13058;BME280;6595;49.578;11.012;2022-10-19T08:52:28;994.420;;;19.13;88.5
13058;BME280;6595;49.578;11.012;2022-10-19T08:54:36;994.424;;;18.99;88.5
13058;BME280;6595;49.578;11.012;2022-10-19T08:56:28;994.412;;;19.12;88.5
13058;BME280;6595;49.578;11.012;2022-10-19T08:58:32;994.444;;;19.27;88.5
13058;BME280;6595;49.578;11.012;2022-10-19T09:00:34;994.482;;;19.49;88.5
13058;BME280;6595;49.578;11.012;2022-10-19T09:02:34;994.492;;;19.38;88.5
13058;BME280;6595;49.578;11.012;2022-10-19T09:04:27;994.531;;;19.51;88.5
13058;BME280;6595;49.578;11.012;2022-10-19T09:06:27;994.603;;;18.68;88.4
13058;BME280;6595;49.578;11.012;2022-10-19T09:08:24;994.632;;;18.92;88.4
13058;BME280;6595;49.578;11.012;2022-10-19T09:10:25;994.590;;;19.45;88.5
13058;BME280;6595;49.578;11.012;2022-10-19T09:12:32;994.550;;;19.34;88.5
13058;BME280;6595;49.578;11.012;2022-10-19T09:14:28;994.599;;;19.58;88.5
13058;BME280;6595;49.578;11.012;2022-10-19T09:16:24;994.616;;;19.28;88.5
13058;BME280;6595;49.578;11.012;2022-10-19T09:18:26;994.616;;;19.86;88.5
13058;BME280;6595;49.578;11.012;2022-10-19T09:20:29;994.647;;;19.61;88.5
13058;BME280;6595;49.578;11.012;2022-10-19T09:22:28;994.626;;;20.10;88.6
13058;BME280;6595;49.578;11.012;2022-10-19T09:24:27;994.596;;;19.56;88.5
13058;BME280;6595;49.578;11.012;2022-10-19T09:26:27;994.640;;;20.10;88.6
13058;BME280;6595;49.578;11.012;2022-10-19T09:28:36;994.648;;;20.31;88.6
13058;BME280;6595;49.578;11.012;2022-10-19T09:30:23;994.647;;;20.04;88.6
13058;BME280;6595;49.578;11.012;2022-10-19T09:32:26;994.657;;;19.74;88.5
13058;BME280;6595;49.578;11.012;2022-10-19T09:34:28;994.695;;;19.77;88.5
13058;BME280;6595;49.578;11.012;2022-10-19T09:36:31;994.680;;;20.09;88.6
13058;BME280;6595;49.578;11.012;2022-10-19T09:38:26;994.690;;;19.91;88.6
13058;BME280;6595;49.578;11.012;2022-10-19T09:40:27;994.706;;;20.14;88.6
13058;BME280;6595;49.578;11.012;2022-10-19T09:42:25;994.740;;;20.42;88.6
13058;BME280;6595;49.578;11.012;2022-10-19T09:44:25;994.756;;;20.23;88.6
13058;BME280;6595;49.578;11.012;2022-10-19T09:46:29;994.740;;;20.38;88.6
13058;BME280;6595;49.578;11.012;2022-10-19T09:48:27;994.740;;;20.35;88.6
13058;BME280;6595;49.578;11.012;2022-10-19T09:50:24;994.775;;;19.97;88.6
13058;BME280;6595;49.578;11.012;2022-10-19T09:52:31;994.750;;;19.66;88.5
13058;BME280;6595;49.578;11.012;2022-10-19T09:54:30;994.743;;;20.15;88.6
13058;BME280;6595;49.578;11.012;2022-10-19T09:56:26;994.747;;;20.48;88.6
13058;BME280;6595;49.578;11.012;2022-10-19T09:58:24;994.654;;;20.80;88.7
13058;BME280;6595;49.578;11.012;2022-10-19T10:00:31;994.606;;;20.73;88.6
13058;BME280;6595;49.578;11.012;2022-10-19T10:02:29;994.656;;;20.55;88.6
13058;BME280;6595;49.578;11.012;2022-10-19T10:04:23;994.585;;;20.65;88.6
13058;BME280;6595;49.578;11.012;2022-10-19T10:06:23;994.577;;;21.04;88.7
13058;BME280;6595;49.578;11.012;2022-10-19T10:08:28;994.519;;;21.06;88.7
13058;BME280;6595;49.578;11.012;2022-10-19T10:10:27;994.509;;;21.15;88.7
13058;BME280;6595;49.578;11.012;2022-10-19T10:12:23;994.516;;;21.13;88.7
13058;BME280;6595;49.578;11.012;2022-10-19T10:14:27;994.465;;;21.28;88.7
13058;BME280;6595;49.578;11.012;2022-10-19T10:16:27;994.484;;;21.51;88.7
13058;BME280;6595;49.578;11.012;2022-10-19T10:18:24;994.496;;;21.72;88.8
13058;BME280;6595;49.578;11.012;2022-10-19T10:20:26;994.471;;;21.92;88.8
13058;BME280;6595;49.578;11.012;2022-10-19T10:22:26;994.407;;;22.11;88.8
13058;BME280;6595;49.578;11.012;2022-10-19T10:24:25;994.348;;;21.82;88.8
13058;BME280;6595;49.578;11.012;2022-10-19T10:26:24;994.345;;;21.78;88.8
13058;BME280;6595;49.578;11.012;2022-10-19T10:28:25;994.365;;;21.84;88.8
13058;BME280;6595;49.578;11.012;2022-10-19T10:30:26;994.356;;;22.00;88.8
13058;BME280;6595;49.578;11.012;2022-10-19T10:32:24;994.359;;;21.87;88.8
13058;BME280;6595;49.578;11.012;2022-10-19T10:34:33;994.341;;;21.66;88.7
13058;BME280;6595;49.578;11.012;2022-10-19T10:36:25;994.277;;;22.11;88.8
13058;BME280;6595;49.578;11.012;2022-10-19T10:38:26;994.224;;;22.30;88.8
13058;BME280;6595;49.578;11.012;2022-10-19T10:40:26;994.158;;;21.65;88.7
13058;BME280;6595;49.578;11.012;2022-10-19T10:42:28;994.182;;;22.03;88.8
13058;BME280;6595;49.578;11.012;2022-10-19T10:44:25;994.152;;;21.78;88.8
13058;BME280;6595;49.578;11.012;2022-10-19T10:46:25;994.168;;;22.08;88.8
13058;BME280;6595;49.578;11.012;2022-10-19T10:48:27;994.185;;;22.22;88.8
13058;BME280;6595;49.578;11.012;2022-10-19T10:50:26;994.134;;;22.36;88.8
13058;BME280;6595;49.578;11.012;2022-10-19T10:52:24;994.137;;;22.34;88.8
13058;BME280;6595;49.578;11.012;2022-10-19T10:54:25;994.088;;;22.59;88.8